createdAt,value
2018-09-06T00:01:26.358Z,16.60
2018-09-06T00:03:54.228Z,16.50
2018-09-06T00:06:22.085Z,16.40
2018-09-06T00:08:49.918Z,16.20
2018-09-06T00:11:17.941Z,16.10
2018-09-06T00:13:46.050Z,16.10
2018-09-06T00:16:13.787Z,16.10
2018-09-06T00:18:41.529Z,16.10
2018-09-06T00:21:09.727Z,16.00
2018-09-06T00:23:37.971Z,16.00
2018-09-06T00:26:05.823Z,16.00
2018-09-06T00:28:33.591Z,16.10
2018-09-06T00:31:01.418Z,16.10
2018-09-06T00:33:29.357Z,16.10
2018-09-06T00:36:08.360Z,16.10
2018-09-06T00:38:36.374Z,16.20
2018-09-06T00:41:04.447Z,16.10
2018-09-06T00:43:33.822Z,16.10
2018-09-06T00:46:01.864Z,16.10
2018-09-06T00:48:29.967Z,16.00
2018-09-06T00:50:58.007Z,15.90
2018-09-06T00:53:26.252Z,15.90
2018-09-06T00:55:54.228Z,15.80
2018-09-06T00:58:22.742Z,15.70
2018-09-06T01:00:51.385Z,15.70
2018-09-06T01:03:19.419Z,15.60
2018-09-06T01:05:47.452Z,15.50
2018-09-06T01:08:15.806Z,15.40
2018-09-06T01:10:43.754Z,15.30
2018-09-06T01:13:11.847Z,15.30
2018-09-06T01:15:40.056Z,15.30
2018-09-06T01:18:07.949Z,15.30
2018-09-06T01:20:35.876Z,15.30
2018-09-06T01:23:03.728Z,15.20
2018-09-06T01:25:37.296Z,15.30
2018-09-06T01:28:05.273Z,15.20
2018-09-06T01:30:33.462Z,15.10
2018-09-06T01:33:01.379Z,15.00
2018-09-06T01:35:29.616Z,14.80
2018-09-06T01:37:57.483Z,14.70
2018-09-06T01:40:25.607Z,14.70
2018-09-06T01:42:53.512Z,14.60
2018-09-06T01:45:21.218Z,14.50
2018-09-06T01:47:49.318Z,14.50
2018-09-06T01:50:17.250Z,14.50
2018-09-06T01:52:45.203Z,14.40
2018-09-06T01:55:13.018Z,14.40
2018-09-06T01:57:40.990Z,14.40
2018-09-06T02:00:08.922Z,14.50
2018-09-06T02:02:37.395Z,14.40
2018-09-06T02:05:06.682Z,14.40
2018-09-06T02:07:35.026Z,14.40
2018-09-06T02:10:03.515Z,14.40
2018-09-06T02:12:31.940Z,14.40
2018-09-06T02:15:01.094Z,14.40
2018-09-06T02:17:29.465Z,14.40
2018-09-06T02:19:57.839Z,14.30
2018-09-06T02:22:26.054Z,14.20
2018-09-06T02:24:54.194Z,14.30
2018-09-06T02:27:22.467Z,14.30
2018-09-06T02:29:50.816Z,14.30
2018-09-06T02:32:19.453Z,14.30
2018-09-06T02:34:47.833Z,14.30
2018-09-06T02:37:16.865Z,14.40
2018-09-06T02:39:45.195Z,14.40
2018-09-06T02:42:13.377Z,14.50
2018-09-06T02:44:41.805Z,14.40
2018-09-06T02:47:10.269Z,14.50
2018-09-06T02:49:44.091Z,14.50
2018-09-06T02:52:13.168Z,14.60
2018-09-06T02:57:15.878Z,14.60
2018-09-06T02:59:45.863Z,14.70
2018-09-06T03:02:14.229Z,14.70
2018-09-06T03:04:43.342Z,14.70
2018-09-06T03:07:11.359Z,14.80
2018-09-06T03:09:39.363Z,14.70
2018-09-06T03:12:08.645Z,14.70
2018-09-06T03:14:37.105Z,14.60
2018-09-06T03:17:06.140Z,14.50
2018-09-06T03:19:34.586Z,14.40
2018-09-06T03:22:03.698Z,14.40
2018-09-06T03:24:32.137Z,14.40
2018-09-06T03:27:00.137Z,14.40
2018-09-06T03:29:28.531Z,14.40
2018-09-06T03:31:58.369Z,14.40
2018-09-06T03:34:30.565Z,14.30
2018-09-06T03:37:00.006Z,14.30
2018-09-06T03:39:29.083Z,14.30
2018-09-06T03:41:58.085Z,14.30
2018-09-06T03:44:26.362Z,14.30
2018-09-06T03:46:54.840Z,14.30
2018-09-06T03:49:23.110Z,14.30
2018-09-06T03:51:51.181Z,14.30
2018-09-06T03:54:19.404Z,14.30
2018-09-06T03:56:47.729Z,14.20
2018-09-06T03:59:15.696Z,14.20
2018-09-06T04:01:43.569Z,14.20
2018-09-06T04:04:11.400Z,14.20
2018-09-06T04:06:39.421Z,14.20
2018-09-06T04:09:09.061Z,14.10
2018-09-06T04:11:37.064Z,14.20
2018-09-06T04:14:04.915Z,14.10
2018-09-06T04:16:32.717Z,14.10
2018-09-06T04:19:00.689Z,14.00
2018-09-06T04:21:28.457Z,14.00
2018-09-06T04:24:00.292Z,14.00
2018-09-06T04:26:28.179Z,14.00
2018-09-06T04:28:56.569Z,14.00
2018-09-06T04:31:25.352Z,14.00
2018-09-06T04:33:53.412Z,14.00
2018-09-06T04:36:22.030Z,13.90
2018-09-06T04:38:51.520Z,13.90
2018-09-06T04:41:22.176Z,13.90
2018-09-06T04:43:51.924Z,13.90
2018-09-06T04:46:20.248Z,13.90
2018-09-06T04:48:49.092Z,13.90
2018-09-06T04:51:19.708Z,13.90
2018-09-06T04:53:51.792Z,13.90
2018-09-06T04:56:21.656Z,13.90
2018-09-06T04:58:57.425Z,13.90
2018-09-06T05:01:39.530Z,13.80
2018-09-06T05:04:11.586Z,13.90
2018-09-06T05:07:09.363Z,13.90
2018-09-06T05:13:07.102Z,13.90
2018-09-06T05:15:37.990Z,13.90
2018-09-06T05:18:06.366Z,13.90
2018-09-06T05:20:34.248Z,13.80
2018-09-06T05:23:04.678Z,13.90
2018-09-06T05:25:32.308Z,13.90
2018-09-06T05:27:59.991Z,13.80
2018-09-06T05:30:27.648Z,13.80
2018-09-06T05:32:55.522Z,13.80
2018-09-06T05:35:23.482Z,13.80
2018-09-06T05:37:51.419Z,13.80
2018-09-06T05:40:19.240Z,13.80
2018-09-06T05:42:47.089Z,13.80
2018-09-06T05:45:14.878Z,13.70
2018-09-06T05:47:42.711Z,13.70
2018-09-06T05:50:10.590Z,13.70
2018-09-06T05:52:38.459Z,13.80
2018-09-06T05:55:06.859Z,13.90
2018-09-06T05:57:34.879Z,13.90
2018-09-06T06:00:09.824Z,14.10
2018-09-06T06:02:37.739Z,14.20
2018-09-06T06:05:05.883Z,14.50
2018-09-06T06:07:45.428Z,14.60
2018-09-06T06:10:13.629Z,14.70
2018-09-06T06:12:46.551Z,14.90
2018-09-06T06:15:14.701Z,15.00
2018-09-06T06:17:42.923Z,15.10
2018-09-06T06:20:11.296Z,15.30
2018-09-06T06:22:39.802Z,15.40
2018-09-06T06:25:07.878Z,15.50
2018-09-06T06:27:36.567Z,15.60
2018-09-06T06:30:05.373Z,15.80
2018-09-06T06:32:33.886Z,15.90
2018-09-06T06:35:01.903Z,16.00
2018-09-06T06:37:30.086Z,16.20
2018-09-06T06:39:58.496Z,16.30
2018-09-06T06:42:26.520Z,16.40
2018-09-06T06:44:54.707Z,16.50
2018-09-06T06:47:22.801Z,16.60
2018-09-06T06:49:50.862Z,16.70
2018-09-06T06:52:19.332Z,16.70
2018-09-06T06:54:47.899Z,16.90
2018-09-06T06:57:16.023Z,17.00
2018-09-06T06:59:44.477Z,17.10
2018-09-06T07:02:12.509Z,17.20
2018-09-06T07:04:40.539Z,17.30
2018-09-06T07:07:09.423Z,17.50
2018-09-06T07:14:31.951Z,17.80
2018-09-06T07:17:00.132Z,18.20
2018-09-06T07:19:27.789Z,18.50
2018-09-06T07:21:55.441Z,18.80
2018-09-06T07:24:23.026Z,19.10
2018-09-06T07:26:50.824Z,19.40
2018-09-06T07:29:18.834Z,19.80
2018-09-06T07:31:46.709Z,20.10
2018-09-06T07:34:15.945Z,20.40
2018-09-06T07:36:43.582Z,20.70
2018-09-06T07:39:11.163Z,21.00
2018-09-06T07:41:38.686Z,21.30
2018-09-06T07:44:06.650Z,21.30
2018-09-06T07:46:34.402Z,21.60
2018-09-06T08:29:58.362Z,27.60
2018-09-06T08:32:26.304Z,25.40
2018-09-06T08:34:54.280Z,24.50
2018-09-06T08:35:25.316Z,24.10
2018-09-06T08:35:51.510Z,24.10
2018-09-06T08:36:08.919Z,24.00
2018-09-06T08:36:26.650Z,24.00
2018-09-06T08:36:45.372Z,24.00
2018-09-06T08:37:02.878Z,24.00
2018-09-06T08:37:20.301Z,24.00
2018-09-06T08:37:37.727Z,24.00
2018-09-06T08:37:55.377Z,23.90
2018-09-06T08:38:12.779Z,23.90
2018-09-06T08:38:30.167Z,23.90
2018-09-06T08:38:47.732Z,23.90
2018-09-06T08:39:07.800Z,23.90
2018-09-06T08:39:25.358Z,23.90
2018-09-06T08:39:42.877Z,23.90
2018-09-06T08:40:00.297Z,23.90
2018-09-06T08:40:17.765Z,23.90
2018-09-06T08:40:35.195Z,23.90
2018-09-06T08:40:52.628Z,23.80
2018-09-06T08:41:10.138Z,23.90
2018-09-06T08:41:27.570Z,23.90
2018-09-06T08:41:46.774Z,23.90
2018-09-06T08:42:04.194Z,23.90
2018-09-06T08:42:21.637Z,23.90
2018-09-06T08:42:39.314Z,23.90
2018-09-06T08:42:56.765Z,23.90
2018-09-06T08:43:15.800Z,23.90
2018-09-06T08:44:12.181Z,23.90
2018-09-06T08:44:47.098Z,23.90
2018-09-06T08:45:20.130Z,23.90
2018-09-06T08:45:53.072Z,23.90
2018-09-06T08:46:26.041Z,23.90
2018-09-06T08:47:32.437Z,25.30
2018-09-06T08:48:05.418Z,26.80
2018-09-06T08:48:38.508Z,26.30
2018-09-06T08:49:11.498Z,25.90
2018-09-06T08:49:46.101Z,25.60
2018-09-06T08:50:19.035Z,25.40
2018-09-06T08:50:52.019Z,23.60
2018-09-06T08:51:24.999Z,24.60
2018-09-06T08:51:58.033Z,24.70
2018-09-06T08:52:31.008Z,24.70
2018-09-06T08:53:04.007Z,24.70
2018-09-06T08:53:36.984Z,24.60
2018-09-06T08:54:09.994Z,24.60
2018-09-06T08:54:42.965Z,24.50
2018-09-06T08:55:17.610Z,24.50
2018-09-06T08:55:50.693Z,24.50
2018-09-06T08:56:23.652Z,24.50
2018-09-06T08:56:56.593Z,24.50
2018-09-06T08:57:29.568Z,24.50
2018-09-06T08:58:02.631Z,24.50
2018-09-06T08:58:35.734Z,24.50
2018-09-06T08:59:08.811Z,24.50
2018-09-06T08:59:41.987Z,24.50
2018-09-06T09:00:16.652Z,24.50
2018-09-06T09:00:55.465Z,24.50
2018-09-06T09:01:34.188Z,24.50
2018-09-06T09:02:13.414Z,24.50
2018-09-06T09:02:47.778Z,24.50
2018-09-06T09:03:20.701Z,24.60
2018-09-06T09:03:53.705Z,24.60
2018-09-06T09:04:26.761Z,24.60
2018-09-06T09:04:59.794Z,24.60
2018-09-06T09:05:32.818Z,24.60
2018-09-06T09:06:06.085Z,24.60
2018-09-06T09:06:39.290Z,24.60
2018-09-06T09:07:12.251Z,24.60
2018-09-06T09:07:46.822Z,24.60
2018-09-06T09:08:19.811Z,24.60
2018-09-06T09:08:52.841Z,24.70
2018-09-06T09:09:25.866Z,24.70
2018-09-06T09:09:58.952Z,24.60
2018-09-06T09:10:31.999Z,24.70
2018-09-06T09:11:05.476Z,24.70
2018-09-06T09:11:38.604Z,24.70
2018-09-06T09:12:11.599Z,24.70
2018-09-06T09:12:46.573Z,24.70
2018-09-06T09:13:19.587Z,24.70
2018-09-06T09:13:52.643Z,24.70
2018-09-06T09:25:53.429Z,24.70
2018-09-06T09:26:25.912Z,24.80
2018-09-06T09:26:58.357Z,24.80
2018-09-06T09:27:30.821Z,24.80
2018-09-06T09:28:48.703Z,24.90
2018-09-06T09:29:21.699Z,24.90
2018-09-06T09:29:56.191Z,24.90
2018-09-06T09:30:29.236Z,24.90
2018-09-06T09:31:02.183Z,24.90
2018-09-06T09:31:35.148Z,24.90
2018-09-06T09:32:08.103Z,24.90
2018-09-06T09:32:41.097Z,24.90
2018-09-06T09:33:15.744Z,24.90
2018-09-06T09:33:48.896Z,24.90
2018-09-06T09:34:21.904Z,24.90
2018-09-06T09:34:54.984Z,24.90
2018-09-06T09:35:27.982Z,24.90
2018-09-06T09:37:48.833Z,24.90
2018-09-06T10:05:00.702Z,25.90
2018-09-06T10:14:29.135Z,27.40
2018-09-06T10:16:32.966Z,27.70
2018-09-06T10:18:36.596Z,27.80
2018-09-06T10:20:40.739Z,27.80
2018-09-06T10:22:44.918Z,28.00
2018-09-06T10:24:48.689Z,28.20
2018-09-06T10:26:52.814Z,28.40
2018-09-06T10:28:57.201Z,28.40
2018-09-06T10:31:01.644Z,28.40
2018-09-06T10:33:06.576Z,28.60
2018-09-06T10:35:10.780Z,28.60
2018-09-06T10:37:15.611Z,28.70
2018-09-06T10:39:20.155Z,28.60
2018-09-06T10:41:24.205Z,28.60
2018-09-06T10:43:28.382Z,28.50
2018-09-06T10:45:32.691Z,28.50
2018-09-06T10:47:36.078Z,28.40
2018-09-06T10:49:40.363Z,28.60
2018-09-06T10:51:43.900Z,28.30
2018-09-06T10:53:53.086Z,28.40
2018-09-06T10:56:07.355Z,28.50
2018-09-06T10:58:16.954Z,28.70
2018-09-06T11:00:25.884Z,28.70
2018-09-06T11:02:46.751Z,28.60
2018-09-06T11:05:35.086Z,28.70
2018-09-06T11:07:39.534Z,28.90
2018-09-06T11:09:43.732Z,28.80
2018-09-06T11:11:47.506Z,28.30
2018-09-06T11:13:51.711Z,28.00
2018-09-06T11:15:55.525Z,27.70
2018-09-06T11:17:59.377Z,27.40
2018-09-06T11:20:03.608Z,27.40
2018-09-06T11:22:10.244Z,27.70
2018-09-06T11:24:18.083Z,28.00
2018-09-06T11:27:06.030Z,28.30
2018-09-06T11:32:15.038Z,28.30
2018-09-06T11:37:27.421Z,28.10
2018-09-06T11:39:31.161Z,28.50
2018-09-06T11:41:35.031Z,28.50
2018-09-06T11:43:38.243Z,28.60
2018-09-06T11:45:43.035Z,28.80
2018-09-06T11:47:46.927Z,29.00
2018-09-06T11:49:50.332Z,29.30
2018-09-06T11:51:53.914Z,29.30
2018-09-06T11:53:57.420Z,29.40
2018-09-06T11:56:00.918Z,29.50
2018-09-06T11:58:04.873Z,29.40
2018-09-06T12:00:08.251Z,29.60
2018-09-06T12:02:13.123Z,29.70
2018-09-06T12:04:16.399Z,29.90
2018-09-06T12:06:19.567Z,30.00
2018-09-06T12:08:22.899Z,30.00
2018-09-06T12:10:26.056Z,30.10
2018-09-06T12:12:29.319Z,30.30
2018-09-06T12:14:32.580Z,30.40
2018-09-06T12:16:35.872Z,30.60
2018-09-06T12:18:39.001Z,30.60
2018-09-06T12:20:43.882Z,30.50
2018-09-06T12:22:46.979Z,30.20
2018-09-06T12:24:50.313Z,30.10
2018-09-06T12:26:53.554Z,30.10
2018-09-06T12:28:56.817Z,30.20
2018-09-06T12:31:01.272Z,30.50
2018-09-06T12:33:05.167Z,30.60
2018-09-06T12:35:09.357Z,30.70
2018-09-06T12:37:16.033Z,30.70
2018-09-06T12:39:19.668Z,30.60
2018-09-06T12:41:22.812Z,30.80
2018-09-06T12:43:25.954Z,30.80
2018-09-06T12:45:29.100Z,30.80
2018-09-06T12:47:32.434Z,30.80
2018-09-06T12:49:35.804Z,30.80
2018-09-06T12:51:38.941Z,30.70
2018-09-06T12:53:43.778Z,30.40
2018-09-06T12:55:47.010Z,29.90
2018-09-06T12:57:50.426Z,29.60
2018-09-06T12:59:53.604Z,29.50
2018-09-06T13:01:56.818Z,29.40
2018-09-06T13:03:59.914Z,29.90
2018-09-06T13:06:03.094Z,30.20
2018-09-06T13:08:06.269Z,30.20
2018-09-06T13:10:09.384Z,30.40
2018-09-06T13:12:14.523Z,30.30
2018-09-06T13:14:17.643Z,30.10
2018-09-06T13:16:20.746Z,30.00
2018-09-06T13:18:23.936Z,30.10
2018-09-06T13:20:27.035Z,30.10
2018-09-06T13:22:30.109Z,30.10
2018-09-06T13:24:34.916Z,30.00
2018-09-06T13:26:38.102Z,29.50
2018-09-06T13:28:41.305Z,29.00
2018-09-06T13:30:44.502Z,29.00
2018-09-06T13:32:47.683Z,29.20
2018-09-06T13:34:50.832Z,29.40
2018-09-06T13:36:54.000Z,29.80
2018-09-06T13:38:57.251Z,30.10
2018-09-06T13:41:00.423Z,30.40
2018-09-06T13:43:05.125Z,30.70
2018-09-06T13:45:08.571Z,30.90
2018-09-06T13:47:11.815Z,30.90
2018-09-06T13:49:15.019Z,31.00
2018-09-06T13:51:18.286Z,31.20
2018-09-06T13:53:22.691Z,31.10
2018-09-06T13:55:26.127Z,31.20
2018-09-06T13:57:29.300Z,31.30
2018-09-06T13:59:33.840Z,31.10
2018-09-06T14:01:36.969Z,31.00
2018-09-06T14:03:40.182Z,31.10
2018-09-06T14:05:43.514Z,31.30
2018-09-06T14:07:46.804Z,31.20
2018-09-06T14:09:50.133Z,31.20
2018-09-06T14:11:53.394Z,31.20
2018-09-06T14:13:56.541Z,31.20
2018-09-06T14:15:59.876Z,31.00
2018-09-06T14:18:04.456Z,30.90
2018-09-06T14:20:07.881Z,30.80
2018-09-06T14:22:10.988Z,30.70
2018-09-06T14:24:14.174Z,30.50
2018-09-06T14:26:17.341Z,30.70
2018-09-06T14:28:20.591Z,30.70
2018-09-06T14:30:23.861Z,30.90
2018-09-06T14:32:27.082Z,31.00
2018-09-06T14:34:30.249Z,31.00
2018-09-06T14:36:34.150Z,30.50
2018-09-06T14:38:37.412Z,30.00
2018-09-06T14:40:40.634Z,30.00
2018-09-06T14:42:44.110Z,30.30
2018-09-06T14:44:47.283Z,30.60
2018-09-06T14:46:50.384Z,30.50
2018-09-06T14:48:53.484Z,30.60
2018-09-06T14:50:56.696Z,30.80
2018-09-06T14:52:59.966Z,30.70
2018-09-06T14:55:04.959Z,30.70
2018-09-06T14:57:08.139Z,30.60
2018-09-06T14:59:11.937Z,30.70
2018-09-06T15:04:07.206Z,31.00
2018-09-06T15:06:10.788Z,31.40
2018-09-06T15:08:14.342Z,31.60
2018-09-06T15:10:19.312Z,31.50
2018-09-06T15:12:23.009Z,31.80
2018-09-06T15:14:26.337Z,31.90
2018-09-06T15:16:30.189Z,31.80
2018-09-06T15:18:35.224Z,31.80
2018-09-06T15:20:38.550Z,31.90
2018-09-06T15:22:41.796Z,32.10
2018-09-06T15:24:49.771Z,32.30
2018-09-06T15:26:53.671Z,32.00
2018-09-06T15:28:58.010Z,32.00
2018-09-06T15:31:01.759Z,32.10
2018-09-06T15:33:06.878Z,32.30
2018-09-06T15:35:11.906Z,32.30
2018-09-06T15:37:15.574Z,32.00
2018-09-06T15:39:22.813Z,31.90
2018-09-06T15:42:03.692Z,31.80
2018-09-06T15:44:07.489Z,32.00
2018-09-06T15:46:11.130Z,32.10
2018-09-06T15:48:14.783Z,32.20
2018-09-06T15:50:18.403Z,32.40
2018-09-06T15:52:23.231Z,32.30
2018-09-06T15:54:26.781Z,32.10
2018-09-06T15:59:23.777Z,31.40
2018-09-06T16:01:27.268Z,31.40
2018-09-06T16:03:30.321Z,31.10
2018-09-06T16:05:34.688Z,30.90
2018-09-06T16:07:38.021Z,31.00
2018-09-06T16:09:41.184Z,31.00
2018-09-06T16:11:45.478Z,30.70
2018-09-06T16:13:48.549Z,30.50
2018-09-06T16:15:51.598Z,30.20
2018-09-06T16:17:56.931Z,29.90
2018-09-06T16:20:00.137Z,29.80
2018-09-06T16:22:04.371Z,29.70
2018-09-06T16:24:07.445Z,29.60
2018-09-06T16:26:10.442Z,29.40
2018-09-06T16:28:13.500Z,29.30
2018-09-06T16:30:16.680Z,28.80
2018-09-06T16:32:19.785Z,28.80
2018-09-06T16:34:23.328Z,28.90
2018-09-06T16:36:26.507Z,28.60
2018-09-06T16:38:29.747Z,28.00
2018-09-06T16:40:34.795Z,27.80
2018-09-06T16:42:38.868Z,27.80
2018-09-06T16:44:42.237Z,27.60
2018-09-06T16:46:45.566Z,27.30
2018-09-06T16:48:48.988Z,26.90
2018-09-06T16:50:58.126Z,26.80
2018-09-06T16:53:01.909Z,26.70
2018-09-06T16:55:05.671Z,26.50
2018-09-06T16:57:09.146Z,26.50
2018-09-06T16:59:12.456Z,26.30
2018-09-06T17:01:16.070Z,26.20
2018-09-06T17:03:19.444Z,26.00
2018-09-06T17:05:22.821Z,25.90
2018-09-06T17:07:26.072Z,25.90
2018-09-06T17:09:29.293Z,25.90
2018-09-06T17:11:32.635Z,25.80
2018-09-06T17:13:35.923Z,25.80
2018-09-06T17:15:39.801Z,25.50
2018-09-06T17:17:43.167Z,25.40
2018-09-06T17:19:46.462Z,25.40
2018-09-06T17:21:49.670Z,25.30
2018-09-06T17:23:53.644Z,25.20
2018-09-06T17:25:57.502Z,25.00
2018-09-06T17:28:00.712Z,25.00
2018-09-06T17:30:04.081Z,24.90
2018-09-06T17:32:07.486Z,24.70
2018-09-06T17:34:10.474Z,24.70
2018-09-06T17:36:13.935Z,24.70
2018-09-06T17:38:17.066Z,24.50
2018-09-06T17:40:20.177Z,24.50
2018-09-06T17:42:23.341Z,24.40
2018-09-06T17:44:28.801Z,24.10
2018-09-06T17:46:31.801Z,23.90
2018-09-06T17:48:34.876Z,23.80
2018-09-06T17:50:38.938Z,23.70
2018-09-06T17:52:41.909Z,23.50
2018-09-06T17:54:44.899Z,23.60
2018-09-06T17:56:48.251Z,23.40
2018-09-06T17:58:51.840Z,23.30
2018-09-06T18:01:16.602Z,23.30
2018-09-06T18:03:19.708Z,23.10
2018-09-06T18:05:22.751Z,23.00
2018-09-06T18:07:25.735Z,23.00
2018-09-06T18:09:28.686Z,22.90
2018-09-06T18:11:31.747Z,22.80
2018-09-06T18:13:34.753Z,22.90
2018-09-06T18:15:37.785Z,22.60
2018-09-06T18:17:40.991Z,22.60
2018-09-06T18:19:43.953Z,22.50
2018-09-06T18:21:46.933Z,22.60
2018-09-06T18:23:50.015Z,22.50
2018-09-06T18:25:53.009Z,22.40
2018-09-06T18:27:56.041Z,22.30
2018-09-06T18:29:59.838Z,22.30
2018-09-06T18:32:03.686Z,22.10
2018-09-06T18:34:06.761Z,22.10
2018-09-06T18:36:09.858Z,22.10
2018-09-06T18:38:12.993Z,22.00
2018-09-06T18:40:16.463Z,21.90
2018-09-06T18:42:20.407Z,22.00
2018-09-06T18:44:23.430Z,21.90
2018-09-06T18:46:26.453Z,21.90
2018-09-06T18:48:29.466Z,21.80
2018-09-06T18:50:32.798Z,21.80
2018-09-06T18:52:35.801Z,21.80
2018-09-06T18:54:39.069Z,21.70
2018-09-06T18:56:42.229Z,21.50
2018-09-06T18:58:45.181Z,21.40
2018-09-06T19:00:48.141Z,21.40
2018-09-06T19:02:51.246Z,21.40
2018-09-06T19:04:54.221Z,21.30
2018-09-06T19:06:57.215Z,21.30
2018-09-06T19:09:00.744Z,21.20
2018-09-06T19:11:03.715Z,21.20
2018-09-06T19:13:06.925Z,21.00
2018-09-06T19:15:09.963Z,21.00
2018-09-06T19:17:13.056Z,20.90
2018-09-06T19:19:16.136Z,20.90
2018-09-06T19:21:19.120Z,20.80
2018-09-06T19:23:22.134Z,20.80
2018-09-06T19:25:25.530Z,20.80
2018-09-06T19:27:28.550Z,20.70
2018-09-06T19:29:31.552Z,20.70
2018-09-06T19:31:34.661Z,20.70
2018-09-06T19:33:37.691Z,20.70
2018-09-06T19:35:40.777Z,20.60
2018-09-06T19:37:43.907Z,20.50
2018-09-06T19:39:46.941Z,20.60
2018-09-06T19:41:51.023Z,20.50
2018-09-06T19:43:54.065Z,20.40
2018-09-06T19:45:57.179Z,20.30
2018-09-06T19:48:00.222Z,20.30
2018-09-06T19:50:03.605Z,20.20
2018-09-06T19:52:06.673Z,20.20
2018-09-06T19:54:09.851Z,20.20
2018-09-06T19:56:12.884Z,20.10
2018-09-06T19:58:15.866Z,20.10
2018-09-06T20:00:18.936Z,20.10
2018-09-06T20:02:21.954Z,20.00
2018-09-06T20:04:26.078Z,20.00
2018-09-06T20:06:29.069Z,19.90
2018-09-06T20:08:32.080Z,19.80
2018-09-06T20:10:35.322Z,19.90
2018-09-06T20:12:38.625Z,19.80
2018-09-06T20:14:41.608Z,19.80
2018-09-06T20:16:44.760Z,19.80
2018-09-06T20:18:48.076Z,19.70
2018-09-06T20:20:51.135Z,19.70
2018-09-06T20:22:54.104Z,19.60
2018-09-06T20:24:57.163Z,19.50
2018-09-06T20:27:00.182Z,19.40
2018-09-06T20:29:03.463Z,19.40
2018-09-06T20:31:06.524Z,19.40
2018-09-06T20:33:09.480Z,19.30
2018-09-06T20:35:12.929Z,19.30
2018-09-06T20:37:15.877Z,19.30
2018-09-06T20:39:19.074Z,19.30
2018-09-06T20:41:22.433Z,19.30
2018-09-06T20:43:26.140Z,19.20
2018-09-06T20:45:29.140Z,19.20
2018-09-06T20:47:32.201Z,19.30
2018-09-06T20:49:35.175Z,19.30
2018-09-06T20:51:38.165Z,19.20
2018-09-06T20:53:42.100Z,19.20
2018-09-06T20:55:45.243Z,19.10
2018-09-06T20:57:48.226Z,19.10
2018-09-06T20:59:51.360Z,19.00
2018-09-06T21:01:54.447Z,19.10
2018-09-06T21:03:57.494Z,19.10
2018-09-06T21:06:00.609Z,19.10
2018-09-06T21:08:03.599Z,19.10
2018-09-06T21:10:06.855Z,19.10
2018-09-06T21:12:09.861Z,19.00
2018-09-06T21:14:12.892Z,18.90
2018-09-06T21:16:16.139Z,18.90
2018-09-06T21:18:19.281Z,19.00
2018-09-06T21:20:22.310Z,19.00
2018-09-06T21:22:25.605Z,18.90
2018-09-06T21:24:28.730Z,18.90
2018-09-06T21:26:31.751Z,18.90
2018-09-06T21:28:34.797Z,18.90
2018-09-06T21:30:37.772Z,18.90
2018-09-06T21:32:41.073Z,18.90
2018-09-06T21:34:44.206Z,18.90
2018-09-06T21:36:47.237Z,18.80
2018-09-06T21:38:50.522Z,18.80
2018-09-06T21:40:53.540Z,18.80
2018-09-06T21:42:56.586Z,18.80
2018-09-06T21:44:59.634Z,18.80
2018-09-06T21:47:02.764Z,18.70
2018-09-06T21:49:06.299Z,18.70
2018-09-06T21:51:09.587Z,18.70
2018-09-06T21:53:12.580Z,18.60
2018-09-06T21:55:15.625Z,18.60
2018-09-06T21:57:18.660Z,18.60
2018-09-06T21:59:21.750Z,18.60
2018-09-06T22:01:24.964Z,18.60
2018-09-06T22:04:37.152Z,18.60
2018-09-06T22:06:40.149Z,18.60
2018-09-06T22:08:43.866Z,18.50
2018-09-06T22:10:46.969Z,18.60
2018-09-06T22:12:51.450Z,18.50
2018-09-06T22:14:55.033Z,18.50
2018-09-06T22:16:58.121Z,18.40
2018-09-06T22:19:01.244Z,18.30
2018-09-06T22:21:04.624Z,18.30
2018-09-06T22:23:07.814Z,18.30
2018-09-06T22:25:10.974Z,18.30
2018-09-06T22:27:13.963Z,18.20
2018-09-06T22:29:17.032Z,18.20
2018-09-06T22:31:20.203Z,18.20
2018-09-06T22:33:23.335Z,18.30
2018-09-06T22:35:26.384Z,18.30
2018-09-06T22:37:29.464Z,18.20
2018-09-06T22:39:32.525Z,18.30
2018-09-06T22:41:36.115Z,18.20
2018-09-06T22:43:39.210Z,18.10
2018-09-06T22:45:42.729Z,18.10
2018-09-06T22:47:45.883Z,18.10
2018-09-06T22:49:48.925Z,18.10
2018-09-06T22:51:51.962Z,18.00
2018-09-06T22:53:54.949Z,18.00
2018-09-06T22:55:57.948Z,17.90
2018-09-06T22:58:00.976Z,18.00
2018-09-06T23:00:04.384Z,18.00
2018-09-06T23:02:07.897Z,17.90
2018-09-06T23:04:10.903Z,17.90
2018-09-06T23:06:13.906Z,17.90
2018-09-06T23:08:16.985Z,17.80
2018-09-06T23:10:20.057Z,17.70
2018-09-06T23:12:23.148Z,17.60
2018-09-06T23:14:26.196Z,17.60
2018-09-06T23:16:29.183Z,17.60
2018-09-06T23:18:32.193Z,17.50
2018-09-06T23:20:35.226Z,17.40
2018-09-06T23:22:38.949Z,17.50
2018-09-06T23:24:41.962Z,17.40
2018-09-06T23:26:44.895Z,17.40
2018-09-06T23:28:47.942Z,17.30
2018-09-06T23:30:50.937Z,17.30
2018-09-06T23:32:53.957Z,17.30
2018-09-06T23:34:56.975Z,17.30
2018-09-06T23:37:00.026Z,17.30
2018-09-06T23:39:04.585Z,17.30
2018-09-06T23:41:07.630Z,17.20
2018-09-06T23:43:10.670Z,17.30
2018-09-06T23:45:13.682Z,17.20
2018-09-06T23:47:16.657Z,17.20
2018-09-06T23:49:19.660Z,17.20
2018-09-06T23:51:22.660Z,17.20
2018-09-06T23:53:26.513Z,17.20
2018-09-06T23:55:30.438Z,17.30
2018-09-06T23:57:33.437Z,17.10
2018-09-06T23:59:36.884Z,17.20
